createdAt,value
2023-11-02T00:01:09.591Z,87.19
2023-11-02T00:03:39.645Z,86.85
2023-11-02T00:06:06.336Z,87.03
2023-11-02T00:08:36.250Z,87.09
2023-11-02T00:11:07.546Z,86.61
2023-11-02T00:13:34.821Z,86.52
2023-11-02T00:16:04.227Z,86.71
2023-11-02T00:18:32.701Z,86.91
2023-11-02T00:21:00.205Z,86.69
2023-11-02T00:23:40.902Z,86.58
2023-11-02T00:26:07.799Z,86.62
2023-11-02T00:28:34.582Z,87.03
2023-11-02T00:31:02.066Z,87.32
2023-11-02T00:33:29.598Z,87.14
2023-11-02T00:35:56.327Z,87.43
2023-11-02T00:38:25.445Z,87.01
2023-11-02T00:40:52.202Z,86.72
2023-11-02T00:43:30.598Z,86.76
2023-11-02T00:45:57.355Z,86.99
2023-11-02T00:48:35.156Z,87.03
2023-11-02T00:51:26.688Z,86.66
2023-11-02T00:54:07.250Z,86.89
2023-11-02T00:56:40.146Z,87.01
2023-11-02T00:59:06.841Z,86.47
2023-11-02T01:01:33.444Z,86.72
2023-11-02T01:04:08.101Z,87.04
2023-11-02T01:06:37.383Z,87.24
2023-11-02T01:09:25.084Z,87.38
2023-11-02T01:11:51.770Z,88.05
2023-11-02T01:14:41.039Z,87.82
2023-11-02T01:17:07.680Z,87.19
2023-11-02T01:19:51.633Z,86.98
2023-11-02T01:22:30.330Z,86.96
2023-11-02T01:25:02.723Z,87.02
2023-11-02T01:27:30.438Z,86.91
2023-11-02T01:29:58.010Z,86.82
2023-11-02T01:32:24.952Z,87.13
2023-11-02T01:34:52.376Z,87.40
2023-11-02T01:37:20.191Z,87.51
2023-11-02T01:39:47.167Z,87.78
2023-11-02T01:42:27.327Z,88.27
2023-11-02T01:45:05.715Z,88.28
2023-11-02T01:48:06.998Z,88.25
2023-11-02T01:50:57.052Z,88.37
2023-11-02T01:53:29.198Z,89.01
2023-11-02T01:56:17.603Z,88.58
2023-11-02T01:59:06.293Z,88.38
2023-11-02T02:01:39.208Z,88.77
2023-11-02T02:04:17.433Z,89.27
2023-11-02T02:07:07.276Z,88.83
2023-11-02T02:09:51.297Z,87.93
2023-11-02T02:12:34.790Z,87.81
2023-11-02T02:15:22.162Z,87.51
2023-11-02T02:18:01.346Z,87.79
2023-11-02T02:20:33.096Z,88.05
2023-11-02T02:23:02.674Z,88.11
2023-11-02T02:26:07.068Z,87.99
2023-11-02T02:28:58.607Z,88.23
2023-11-02T02:31:27.843Z,88.50
2023-11-02T02:34:25.501Z,88.77
2023-11-02T02:37:07.645Z,89.74
2023-11-02T02:39:42.381Z,90.18
2023-11-02T02:42:12.081Z,89.97
2023-11-02T02:44:39.693Z,89.90
2023-11-02T02:47:07.002Z,90.43
2023-11-02T02:49:39.314Z,90.75
2023-11-02T02:52:13.180Z,90.57
2023-11-02T02:54:44.045Z,90.65
2023-11-02T02:57:12.602Z,90.71
2023-11-02T02:59:43.442Z,90.59
2023-11-02T03:02:12.314Z,90.69
2023-11-02T03:04:39.154Z,90.73
2023-11-02T03:07:07.761Z,90.92
2023-11-02T03:09:38.837Z,90.78
2023-11-02T03:12:08.007Z,90.76
2023-11-02T03:14:42.457Z,90.92
2023-11-02T03:17:23.005Z,91.04
2023-11-02T03:19:51.559Z,90.76
2023-11-02T03:22:23.348Z,91.06
2023-11-02T03:24:55.954Z,91.10
2023-11-02T03:28:07.525Z,90.88
2023-11-02T03:31:09.911Z,91.03
2023-11-02T03:33:54.909Z,91.19
2023-11-02T03:36:23.596Z,91.05
2023-11-02T03:39:07.433Z,91.01
2023-11-02T03:42:00.310Z,91.24
2023-11-02T03:44:39.375Z,91.00
2023-11-02T03:47:43.114Z,90.78
2023-11-02T03:50:31.804Z,90.91
2023-11-02T03:53:11.772Z,91.00
2023-11-02T03:55:45.520Z,91.00
2023-11-02T03:58:27.079Z,91.21
2023-11-02T04:01:02.310Z,91.68
2023-11-02T04:03:32.831Z,91.79
2023-11-02T04:06:03.799Z,91.56
2023-11-02T04:08:36.135Z,91.45
2023-11-02T04:11:10.097Z,91.28
2023-11-02T04:13:55.785Z,91.35
2023-11-02T04:16:24.332Z,91.10
2023-11-02T04:18:50.968Z,91.16
2023-11-02T04:21:17.973Z,91.41
2023-11-02T04:23:44.579Z,91.47
2023-11-02T04:26:11.222Z,91.34
2023-11-02T04:28:38.009Z,91.43
2023-11-02T04:31:04.800Z,91.57
2023-11-02T04:33:32.157Z,91.42
2023-11-02T04:36:00.050Z,91.36
2023-11-02T04:38:26.781Z,91.34
2023-11-02T04:40:55.530Z,91.38
2023-11-02T04:43:22.325Z,91.12
2023-11-02T04:45:48.953Z,91.19
2023-11-02T04:48:15.687Z,91.38
2023-11-02T04:50:42.346Z,91.12
2023-11-02T04:53:09.123Z,91.05
2023-11-02T04:55:36.550Z,91.18
2023-11-02T04:58:03.059Z,91.45
2023-11-02T05:00:30.974Z,91.49
2023-11-02T05:02:57.861Z,91.42
2023-11-02T05:05:24.532Z,91.47
2023-11-02T05:07:51.062Z,91.46
2023-11-02T05:10:17.606Z,91.42
2023-11-02T05:12:44.197Z,91.39
2023-11-02T05:15:11.694Z,91.47
2023-11-02T05:17:39.233Z,91.85
2023-11-02T05:20:06.876Z,91.62
2023-11-02T05:22:33.404Z,91.44
2023-11-02T05:24:59.972Z,91.48
2023-11-02T05:27:26.963Z,91.60
2023-11-02T05:29:53.529Z,91.38
2023-11-02T05:32:20.563Z,91.17
2023-11-02T05:34:47.077Z,91.13
2023-11-02T05:37:14.227Z,91.01
2023-11-02T05:39:40.807Z,90.23
2023-11-02T05:42:07.879Z,89.81
2023-11-02T05:44:34.579Z,89.45
2023-11-02T05:47:01.154Z,89.17
2023-11-02T05:49:28.296Z,88.74
2023-11-02T05:51:54.852Z,88.35
2023-11-02T05:54:21.473Z,87.96
2023-11-02T05:56:48.043Z,87.46
2023-11-02T05:59:14.571Z,87.03
2023-11-02T06:01:42.319Z,86.02
2023-11-02T06:04:09.167Z,85.57
2023-11-02T06:06:36.440Z,85.52
2023-11-02T06:09:04.228Z,85.71
2023-11-02T06:11:30.905Z,85.22
2023-11-02T06:13:59.331Z,84.62
2023-11-02T06:16:27.003Z,84.20
2023-11-02T06:18:53.550Z,82.96
2023-11-02T06:21:20.355Z,82.42
2023-11-02T06:23:47.147Z,82.40
2023-11-02T06:26:13.871Z,81.87
2023-11-02T06:28:40.457Z,82.12
2023-11-02T06:31:07.024Z,81.57
2023-11-02T06:33:36.093Z,81.26
2023-11-02T06:36:03.063Z,80.54
2023-11-02T06:38:30.754Z,80.17
2023-11-02T06:40:57.663Z,79.78
2023-11-02T06:43:24.907Z,79.67
2023-11-02T06:45:52.830Z,79.26
2023-11-02T06:48:19.874Z,78.55
2023-11-02T06:50:48.370Z,78.25
2023-11-02T06:53:15.091Z,78.56
2023-11-02T06:55:42.020Z,78.52
2023-11-02T06:58:09.161Z,77.94
2023-11-02T07:00:35.953Z,78.85
2023-11-02T07:03:02.838Z,77.84
2023-11-02T07:05:29.486Z,77.57
2023-11-02T07:07:57.085Z,77.84
2023-11-02T07:10:27.520Z,77.01
2023-11-02T07:12:55.326Z,76.33
2023-11-02T07:15:23.884Z,75.93
2023-11-02T07:17:59.772Z,76.74
2023-11-02T07:20:28.791Z,76.37
2023-11-02T07:22:55.338Z,75.81
2023-11-02T07:25:21.992Z,75.96
2023-11-02T07:27:48.614Z,75.44
2023-11-02T07:30:16.381Z,75.51
2023-11-02T07:32:43.238Z,76.10
2023-11-02T07:35:10.132Z,76.28
2023-11-02T07:37:36.770Z,77.32
2023-11-02T07:40:05.887Z,76.21
2023-11-02T07:42:34.958Z,78.21
2023-11-02T07:45:01.500Z,78.50
2023-11-02T07:47:28.122Z,78.60
2023-11-02T07:49:54.699Z,79.71
2023-11-02T07:52:21.319Z,80.04
2023-11-02T07:54:48.287Z,79.12
2023-11-02T07:57:15.533Z,79.72
2023-11-02T07:59:42.481Z,79.14
2023-11-02T08:02:08.996Z,78.59
2023-11-02T08:04:35.936Z,79.18
2023-11-02T08:07:04.358Z,78.54
2023-11-02T08:09:31.341Z,79.08
2023-11-02T08:11:58.561Z,78.08
2023-11-02T08:14:25.205Z,78.46
2023-11-02T08:16:51.938Z,77.74
2023-11-02T08:19:19.028Z,76.97
2023-11-02T08:21:45.804Z,77.66
2023-11-02T08:24:12.459Z,76.87
2023-11-02T08:26:39.135Z,75.99
2023-11-02T08:29:06.345Z,76.61
2023-11-02T08:31:34.400Z,75.63
2023-11-02T08:34:03.610Z,76.49
2023-11-02T08:36:32.765Z,75.27
2023-11-02T08:38:59.908Z,75.25
2023-11-02T08:41:29.463Z,75.68
2023-11-02T08:43:58.266Z,74.14
2023-11-02T08:46:25.028Z,73.86
2023-11-02T08:48:56.038Z,74.24
2023-11-02T08:51:25.259Z,73.90
2023-11-02T08:53:53.009Z,73.45
2023-11-02T08:56:21.170Z,72.15
2023-11-02T08:58:53.083Z,71.63
2023-11-02T09:01:30.087Z,71.28
2023-11-02T09:03:58.382Z,71.24
2023-11-02T09:06:26.681Z,70.51
2023-11-02T09:08:58.362Z,69.56
2023-11-02T09:11:28.181Z,69.15
2023-11-02T09:13:56.783Z,69.49
2023-11-02T09:16:23.645Z,69.62
2023-11-02T09:18:53.753Z,68.27
2023-11-02T09:21:20.740Z,67.84
2023-11-02T09:23:47.402Z,65.93
2023-11-02T09:26:14.094Z,65.76
2023-11-02T09:28:41.782Z,66.26
2023-11-02T09:31:11.334Z,65.88
2023-11-02T09:33:38.040Z,63.72
2023-11-02T09:36:05.923Z,64.25
2023-11-02T09:38:36.858Z,63.42
2023-11-02T09:41:03.715Z,63.40
2023-11-02T09:43:31.569Z,61.37
2023-11-02T09:46:01.494Z,60.06
2023-11-02T09:48:28.621Z,59.97
2023-11-02T09:50:59.985Z,59.26
2023-11-02T09:53:30.771Z,59.14
2023-11-02T09:59:45.056Z,58.14
2023-11-02T10:02:13.885Z,58.27
2023-11-02T10:04:40.740Z,57.34
2023-11-02T10:07:07.845Z,57.46
2023-11-02T10:09:51.048Z,56.66
2023-11-02T10:12:18.603Z,56.55
2023-11-02T10:14:45.302Z,55.87
2023-11-02T10:17:13.745Z,56.16
2023-11-02T10:19:40.657Z,56.70
2023-11-02T10:22:07.499Z,56.55
2023-11-02T10:24:35.720Z,56.91
2023-11-02T10:27:06.163Z,56.53
2023-11-02T10:29:33.778Z,56.00
2023-11-02T10:32:00.552Z,55.94
2023-11-02T10:34:28.573Z,56.08
2023-11-02T10:36:57.313Z,55.98
2023-11-02T10:39:25.877Z,55.29
2023-11-02T10:42:03.173Z,55.02
2023-11-02T10:44:35.127Z,55.21
2023-11-02T10:47:04.783Z,54.99
2023-11-02T10:49:38.636Z,55.22
2023-11-02T10:52:08.713Z,55.18
2023-11-02T10:54:47.509Z,55.07
2023-11-02T10:57:18.745Z,54.75
2023-11-02T10:59:47.240Z,53.91
2023-11-02T11:02:19.281Z,54.72
2023-11-02T11:04:48.328Z,54.34
2023-11-02T11:07:15.453Z,54.81
2023-11-02T11:09:42.751Z,54.88
2023-11-02T11:12:10.962Z,54.64
2023-11-02T11:14:39.175Z,54.98
2023-11-02T11:17:05.777Z,54.34
2023-11-02T11:19:36.514Z,53.97
2023-11-02T11:22:23.715Z,54.16
2023-11-02T11:25:37.499Z,53.44
2023-11-02T12:46:16.288Z,53.12
2023-11-02T12:48:43.463Z,53.64
2023-11-02T12:51:26.946Z,53.26
2023-11-02T12:53:54.033Z,53.67
2023-11-02T12:56:32.185Z,54.00
2023-11-02T12:59:06.495Z,53.33
2023-11-02T13:01:57.443Z,52.79
2023-11-02T13:04:25.824Z,54.02
2023-11-02T13:06:54.627Z,53.64
2023-11-02T13:09:24.126Z,54.43
2023-11-02T13:11:53.298Z,53.57
2023-11-02T13:14:22.006Z,54.17
2023-11-02T13:16:52.265Z,54.55
2023-11-02T13:19:19.765Z,54.54
2023-11-02T13:21:47.367Z,54.52
2023-11-02T13:24:15.039Z,54.18
2023-11-02T13:26:41.626Z,53.10
2023-11-02T13:29:12.721Z,53.31
2023-11-02T13:31:39.705Z,52.77
2023-11-02T13:34:07.233Z,52.58
2023-11-02T13:36:34.446Z,52.21
2023-11-02T13:39:02.095Z,52.48
2023-11-02T13:41:28.783Z,52.28
2023-11-02T13:43:58.616Z,51.96
2023-11-02T13:46:25.989Z,52.01
2023-11-02T13:48:52.916Z,51.41
2023-11-02T13:51:19.921Z,52.30
2023-11-02T13:55:25.219Z,52.62
2023-11-02T13:57:52.211Z,53.15
2023-11-02T14:00:19.295Z,53.08
2023-11-02T14:02:47.395Z,53.57
2023-11-02T14:05:14.343Z,53.80
2023-11-02T14:07:41.026Z,53.83
2023-11-02T14:10:08.632Z,53.92
2023-11-02T14:12:35.244Z,53.65
2023-11-02T14:15:01.867Z,53.95
2023-11-02T14:17:29.183Z,54.15
2023-11-02T14:19:57.367Z,54.67
2023-11-02T14:22:24.139Z,55.34
2023-11-02T14:24:53.987Z,55.63
2023-11-02T14:27:25.139Z,55.93
2023-11-02T14:29:52.694Z,56.45
2023-11-02T14:32:19.800Z,56.42
2023-11-02T14:34:46.441Z,56.59
2023-11-02T14:37:13.133Z,56.95
2023-11-02T14:39:39.787Z,57.52
2023-11-02T14:42:08.448Z,57.97
2023-11-02T14:44:38.769Z,58.47
2023-11-02T14:47:05.710Z,58.94
2023-11-02T14:49:33.057Z,59.17
2023-11-02T14:52:09.165Z,59.43
2023-11-02T14:54:46.447Z,59.61
2023-11-02T14:57:19.718Z,60.07
2023-11-02T14:59:55.651Z,60.45
2023-11-02T15:02:23.854Z,61.02
2023-11-02T15:04:54.696Z,61.67
2023-11-02T15:07:21.368Z,61.90
2023-11-02T15:09:48.646Z,62.81
2023-11-02T15:12:16.451Z,63.19
2023-11-02T15:14:44.788Z,63.42
2023-11-02T19:57:33.367Z,68.23
2023-11-02T20:00:00.039Z,68.50
2023-11-02T20:02:26.944Z,68.90
2023-11-02T20:04:54.238Z,68.97
2023-11-02T20:07:22.302Z,68.65
2023-11-02T20:09:50.071Z,68.30
2023-11-02T20:12:18.561Z,68.43
2023-11-02T20:14:45.243Z,68.70
2023-11-02T20:17:11.900Z,68.90
2023-11-02T20:19:40.477Z,68.96
2023-11-02T20:22:07.193Z,68.99
2023-11-02T20:24:34.058Z,69.45
2023-11-02T20:27:00.826Z,69.70
2023-11-02T20:29:27.530Z,69.75
2023-11-02T20:31:54.201Z,69.75
2023-11-02T20:34:21.050Z,70.08
2023-11-02T20:36:47.804Z,70.25
2023-11-02T20:39:14.437Z,70.28
2023-11-02T20:41:41.825Z,70.15
2023-11-02T20:44:08.380Z,70.18
2023-11-02T20:46:40.208Z,70.28
2023-11-02T20:49:09.108Z,70.04
2023-11-02T20:51:36.633Z,70.07
2023-11-02T20:54:04.652Z,70.21
2023-11-02T20:56:31.624Z,70.50
2023-11-02T20:58:58.236Z,70.88
2023-11-02T21:01:24.917Z,70.64
2023-11-02T21:03:51.729Z,71.00
2023-11-02T21:06:18.368Z,71.29
2023-11-02T21:08:45.376Z,71.30
2023-11-02T21:11:21.849Z,71.17
2023-11-02T21:13:48.431Z,71.02
2023-11-02T21:16:18.861Z,71.16
2023-11-02T21:18:45.660Z,71.17
2023-11-02T21:21:12.358Z,71.19
2023-11-02T21:23:38.904Z,70.78
2023-11-02T21:26:06.571Z,70.93
2023-11-02T21:28:33.349Z,70.96
2023-11-02T21:31:00.250Z,70.86
2023-11-02T21:33:26.945Z,70.26
2023-11-02T21:35:54.607Z,69.69
2023-11-02T21:38:22.090Z,69.51
2023-11-02T21:40:49.278Z,69.58
2023-11-02T21:43:15.933Z,69.22
2023-11-02T21:45:42.485Z,69.22
2023-11-02T21:48:09.287Z,69.27
2023-11-02T21:50:37.130Z,69.22
2023-11-02T21:53:03.761Z,68.62
2023-11-02T21:55:32.240Z,68.52
2023-11-02T21:57:58.951Z,68.29
2023-11-02T22:00:25.504Z,68.60
2023-11-02T22:02:52.152Z,68.32
2023-11-02T22:05:18.847Z,68.29
2023-11-02T22:07:45.612Z,68.43
2023-11-02T22:10:12.267Z,68.24
2023-11-02T22:12:38.841Z,68.01
2023-11-02T22:15:06.174Z,67.77
2023-11-02T22:17:32.910Z,67.62
2023-11-02T22:19:59.469Z,67.71
2023-11-02T22:22:29.429Z,67.32
2023-11-02T22:24:56.123Z,67.24
2023-11-02T22:27:22.989Z,67.32
2023-11-02T22:29:49.489Z,67.44
2023-11-02T22:32:16.058Z,67.37
2023-11-02T22:34:43.383Z,67.51
2023-11-02T22:37:11.844Z,67.78
2023-11-02T22:39:39.170Z,67.54
2023-11-02T22:42:08.839Z,67.28
2023-11-02T22:44:35.500Z,67.05
2023-11-02T22:47:03.201Z,67.27
2023-11-02T22:49:29.768Z,67.24
2023-11-02T22:51:56.467Z,67.45
2023-11-02T22:54:23.959Z,67.40
2023-11-02T22:56:50.547Z,67.32
2023-11-02T22:59:17.123Z,67.36
2023-11-02T23:01:43.804Z,67.28
2023-11-02T23:04:12.272Z,66.83
2023-11-02T23:06:38.977Z,66.85
2023-11-02T23:09:05.717Z,67.34
2023-11-02T23:11:32.267Z,67.35
2023-11-02T23:13:58.860Z,67.19
2023-11-02T23:16:25.464Z,66.68
2023-11-02T23:18:52.131Z,66.74
2023-11-02T23:21:18.747Z,66.49
2023-11-02T23:23:45.814Z,66.27
2023-11-02T23:26:12.502Z,66.00
2023-11-02T23:28:39.062Z,66.17
2023-11-02T23:31:06.707Z,66.42
2023-11-02T23:33:33.944Z,66.33
2023-11-02T23:36:00.882Z,66.35
2023-11-02T23:38:27.484Z,66.15
2023-11-02T23:40:54.049Z,66.70
2023-11-02T23:43:20.696Z,67.16
2023-11-02T23:45:48.637Z,67.30
2023-11-02T23:48:15.422Z,67.16
2023-11-02T23:50:42.756Z,67.23
2023-11-02T23:53:11.960Z,67.62
2023-11-02T23:55:40.118Z,67.86
2023-11-02T23:58:06.891Z,68.16
